Weather History for Kununurra, WE

Change the Weather History Date:

Saturday, September 21, 2013

  Actual Average Record
Temperature  
Mean Temperature 84 °F -  
Max Temperature 103 °F - - ()
Min Temperature 64 °F - - ()
Cooling Degree Days 18    
Growing Degree Days 34 (Base 50)    
Moisture  
Dew Point 55 °F    
Average Humidity 43    
Maximum Humidity 83    
Minimum Humidity 6    
Precipitation  
Precipitation 0.00 in - - ()
Sea Level Pressure  
Sea Level Pressure 29.79 in    
Wind  
Wind Speed 4 mph ()    
Max Wind Speed 13 mph    
Max Gust Speed -    
Visibility 6.2 miles    
Events      
T = Trace of Precipitation, MM = Missing Value Source: Averaged Metar Reports

Daily Weather History Graph

Daily Weather History Graph

Search for Another Location

Airport:

Trip Planner

Search our weather history database for the weather conditions in past years. The results will help you decide how hot, cold, wet, or windy it might be!

Date:

Astronomy

Sep. 21, 2013 Rise Set
Actual Time 5:15 AM AWST 5:21 PM AWST
Civil Twilight 4:54 AM AWST 5:42 PM AWST
Nautical Twilight 4:29 AM AWST 6:07 PM AWST
Astronomical Twilight 4:04 AM AWST 6:32 PM AWST
Moon 7:00 PM AWST (9/21) 6:12 AM AWST (9/21)
Length of Visible Light 12h 48m
Length of Day
12h 05m
Waning Gibbous, 97% of the Moon is Illuminated
Sep 21
Waning Gibbous
Sep 27
Last Quarter
Oct 5
New
Oct 12
First Quarter
Oct 19
Full

Hourly Weather History & Observations

Time (AWST) Temp. Heat Index Dew Point Humidity Pressure Visibility Wind Dir Wind Speed Gust Speed Precip Events Conditions
12:00 AM 72 °F - 58 °F 51% 29.80 in - Calm Calm - -  
12:00 AM 71.6 °F - 57.2 °F 60% 29.80 in 6.2 mi Calm Calm - N/A   Unknown
12:30 AM 69.8 °F - 57.2 °F 64% 29.80 in 6.2 mi Calm Calm - N/A   Unknown
1:00 AM 69.8 °F - 57.2 °F 64% 29.77 in 6.2 mi South 3.5 mph - N/A   Unknown
1:30 AM 68.0 °F - 60.8 °F 78% 29.77 in 6.2 mi East 4.6 mph - N/A   Unknown
2:00 AM 68 °F - 59 °F 64% 29.78 in - ENE 3.5 mph - -  
2:00 AM 68.0 °F - 59.0 °F 73% 29.77 in 6.2 mi ENE 3.5 mph - N/A   Unknown
2:30 AM 68.0 °F - 59.0 °F 73% 29.77 in 6.2 mi NNW 6.9 mph - N/A   Unknown
3:00 AM 68 °F - 60 °F 68% 29.78 in - West 3.5 mph - -  
3:00 AM 68.0 °F - 60.8 °F 78% 29.77 in 6.2 mi West 3.5 mph - N/A   Unknown
3:30 AM 68.0 °F - 59.0 °F 73% 29.77 in 6.2 mi North 1.2 mph - N/A   Unknown
4:00 AM 66.2 °F - 60.8 °F 83% 29.77 in 6.2 mi North 2.3 mph - N/A   Unknown
4:30 AM 68.0 °F - 62.6 °F 83% 29.80 in 6.2 mi SSE 6.9 mph - N/A   Unknown
5:00 AM 67 °F - 61 °F 75% 29.82 in - SSW 5.8 mph - -  
5:00 AM 66.2 °F - 60.8 °F 83% 29.80 in 6.2 mi SSW 5.8 mph - N/A   Unknown
5:30 AM 68.0 °F - 60.8 °F 78% 29.83 in 6.2 mi SSE 4.6 mph - N/A   Unknown
6:00 AM 70 °F - 62 °F 70% 29.84 in - SSE 2.3 mph - -  
6:00 AM 69.8 °F - 62.6 °F 78% 29.83 in 6.2 mi SSE 2.3 mph - N/A   Unknown
6:30 AM 73.4 °F - 62.6 °F 69% 29.86 in 6.2 mi South 2.3 mph - N/A   Unknown
7:00 AM 78.8 °F - 64.4 °F 61% 29.86 in 6.2 mi South 3.5 mph - N/A   Unknown
7:30 AM 80.6 °F 81.8 °F 62.6 °F 54% 29.86 in 6.2 mi NW 3.5 mph - N/A   Unknown
8:00 AM 86.0 °F 86.6 °F 62.6 °F 45% 29.86 in 6.2 mi North 5.8 mph - N/A   Unknown
8:30 AM 87.8 °F 88.5 °F 62.6 °F 43% 29.86 in 6.2 mi NNE 3.5 mph - N/A   Unknown
9:00 AM 91 °F - 59 °F 24% 29.86 in - NNE 3.5 mph - -  
9:00 AM 91.4 °F 90.7 °F 59.0 °F 34% 29.86 in 6.2 mi NNE 3.5 mph - N/A   Unknown
9:30 AM 95.0 °F 93.7 °F 57.2 °F 28% 29.86 in 6.2 mi NE 4.6 mph - N/A   Unknown
10:00 AM 95.0 °F 92.7 °F 53.6 °F 25% 29.83 in 6.2 mi NE 5.8 mph - N/A   Unknown
10:30 AM 95.0 °F - 51.8 °F 23% 29.83 in 6.2 mi ESE 6.9 mph - N/A   Unknown
11:00 AM 97 °F - 49 °F 12% 29.82 in - ESE 6.9 mph - -  
11:00 AM 96.8 °F - 50.0 °F 20% 29.83 in 6.2 mi ESE 6.9 mph - N/A   Unknown
11:30 AM 98.6 °F - 48.2 °F 18% 29.80 in 6.2 mi South 6.9 mph - N/A   Unknown
12:00 PM 100.4 °F - 37.4 °F 11% 29.77 in 6.2 mi SSE 4.6 mph - N/A   Unknown
12:30 PM 102.2 °F - 37.4 °F 11% 29.77 in 6.2 mi SSE 8.1 mph - N/A   Unknown
1:00 PM 102.2 °F - 42.8 °F 13% 29.74 in 6.2 mi South 8.1 mph - N/A   Unknown
1:30 PM 102.2 °F - 42.8 °F 13% 29.74 in 6.2 mi South 4.6 mph - N/A   Unknown
2:00 PM 102.2 °F - 42.8 °F 13% 29.74 in 6.2 mi East 4.6 mph - N/A   Unknown
2:30 PM 102.2 °F - 39.2 °F 11% 29.71 in 6.2 mi SE 5.8 mph - N/A   Unknown
3:00 PM 102 °F - 39 °F 6% 29.72 in - SE 6.9 mph - -  
3:00 PM 102.2 °F - 39.2 °F 11% 29.71 in 6.2 mi SE 6.9 mph - N/A   Unknown
3:30 PM 102.2 °F - 37.4 °F 11% 29.71 in 6.2 mi SSE 4.6 mph - N/A   Unknown
4:00 PM 102.2 °F - 37.4 °F 11% 29.71 in 6.2 mi SW 3.5 mph - N/A   Unknown
4:30 PM 102.2 °F - 39.2 °F 11% 29.71 in 6.2 mi West 3.5 mph - N/A   Unknown
5:00 PM 99 °F - 45 °F 9% 29.72 in - North 3.5 mph - -  
5:00 PM 98.6 °F - 44.6 °F 16% 29.71 in 6.2 mi North 3.5 mph - N/A   Unknown
5:30 PM 95.0 °F 94.4 °F 59.0 °F 30% 29.71 in 6.2 mi Calm Calm - N/A   Unknown
6:00 PM 89 °F - 60 °F 27% 29.74 in - North 9.2 mph - -  
6:00 PM 89.6 °F 88.9 °F 59.0 °F 36% 29.74 in 6.2 mi North 9.2 mph - N/A   Unknown
6:30 PM 89.6 °F 88.9 °F 59.0 °F 36% 29.77 in 6.2 mi North 10.4 mph - N/A   Unknown
7:00 PM 87.8 °F 86.1 °F 55.4 °F 33% 29.77 in 6.2 mi North 12.7 mph - N/A   Unknown
7:30 PM 84.2 °F 82.8 °F 53.6 °F 35% 29.80 in 6.2 mi North 10.4 mph - N/A   Unknown
8:00 PM 83 °F - 54 °F 26% 29.81 in - NNE 8.1 mph - -  
8:00 PM 82.4 °F 81.4 °F 53.6 °F 37% 29.80 in 6.2 mi NNE 8.1 mph - N/A   Unknown
8:30 PM 82.4 °F 82.0 °F 57.2 °F 42% 29.80 in 6.2 mi North 10.4 mph - N/A   Unknown
9:00 PM 81 °F - 59 °F 36% 29.82 in - NNE 9.2 mph - -  
9:00 PM 80.6 °F 81.1 °F 59.0 °F 48% 29.83 in 6.2 mi NNE 9.2 mph - N/A   Unknown
9:30 PM 80.6 °F 81.5 °F 60.8 °F 51% 29.83 in 6.2 mi NNE 5.8 mph - N/A   Unknown
10:00 PM 78.8 °F - 62.6 °F 57% 29.83 in 6.2 mi North 8.1 mph - N/A   Unknown
10:30 PM 78.8 °F - 62.6 °F 57% 29.83 in 6.2 mi North 8.1 mph - N/A   Unknown
11:00 PM 77 °F - 65 °F 58% 29.82 in - North 8.1 mph - -  
11:00 PM 77.0 °F - 64.4 °F 65% 29.83 in 6.2 mi North 8.1 mph - N/A   Unknown
11:30 PM 75.2 °F - 66.2 °F 73% 29.80 in 6.2 mi North 5.8 mph - N/A   Unknown